createdAt,value
2023-01-17T00:00:46.075Z,82.19
2023-01-17T00:06:17.062Z,82.22
2023-01-17T00:11:19.996Z,82.17
2023-01-17T00:16:22.961Z,82.13
2023-01-17T00:21:44.413Z,81.84
2023-01-17T00:27:06.015Z,81.95
2023-01-17T00:32:08.855Z,81.63
2023-01-17T00:37:11.708Z,81.64
2023-01-17T00:42:14.556Z,81.34
2023-01-17T00:47:36.002Z,81.32
2023-01-17T00:52:57.580Z,81.19
2023-01-17T00:58:25.693Z,81.18
2023-01-17T01:03:47.106Z,80.78
2023-01-17T01:09:08.653Z,80.73
2023-01-17T01:14:30.407Z,80.61
2023-01-17T01:19:52.248Z,80.57
2023-01-17T01:25:13.808Z,80.34
2023-01-17T01:30:35.428Z,80.61
2023-01-17T01:35:38.374Z,80.72
2023-01-17T01:40:51.709Z,80.56
2023-01-17T01:45:58.286Z,80.78
2023-01-17T01:51:06.332Z,80.71
2023-01-17T01:56:13.769Z,80.66
2023-01-17T02:01:18.163Z,80.58
2023-01-17T02:06:34.170Z,80.53
2023-01-17T02:11:40.123Z,80.75
2023-01-17T02:18:12.707Z,80.82
2023-01-17T02:23:37.084Z,80.87
2023-01-17T02:28:42.775Z,80.92
2023-01-17T02:34:04.721Z,80.59
2023-01-17T02:39:27.786Z,80.67
2023-01-17T02:44:39.615Z,80.56
2023-01-17T02:49:42.659Z,80.83
2023-01-17T02:55:06.899Z,80.73
2023-01-17T03:00:36.040Z,80.72
2023-01-17T03:05:56.270Z,80.52
2023-01-17T03:10:59.477Z,80.36
2023-01-17T03:16:08.547Z,80.67
2023-01-17T03:21:11.569Z,80.69
2023-01-17T03:26:14.540Z,80.46
2023-01-17T03:31:20.015Z,80.58
2023-01-17T03:36:22.994Z,80.46
2023-01-17T03:41:25.976Z,80.19
2023-01-17T03:46:28.943Z,80.27
2023-01-17T03:51:31.954Z,80.58
2023-01-17T03:56:34.873Z,80.82
2023-01-17T04:01:37.961Z,80.62
2023-01-17T04:06:41.775Z,80.78
2023-01-17T04:11:44.762Z,80.89
2023-01-17T04:16:47.766Z,80.75
2023-01-17T04:21:50.728Z,80.79
2023-01-17T04:26:53.660Z,80.83
2023-01-17T04:31:56.768Z,80.66
2023-01-17T04:36:59.719Z,80.80
2023-01-17T04:42:02.990Z,80.65
2023-01-17T04:47:05.928Z,80.97
2023-01-17T04:52:08.847Z,80.75
2023-01-17T04:57:11.783Z,80.54
2023-01-17T05:02:15.022Z,80.35
2023-01-17T05:07:17.989Z,80.49
2023-01-17T05:12:21.084Z,80.42
2023-01-17T05:17:24.209Z,80.71
2023-01-17T05:22:27.187Z,80.67
2023-01-17T05:27:30.108Z,80.63
2023-01-17T05:32:33.048Z,80.80
2023-01-17T05:37:35.970Z,80.08
2023-01-17T05:42:38.911Z,79.70
2023-01-17T05:47:41.813Z,79.12
2023-01-17T05:52:58.089Z,78.89
2023-01-17T05:58:01.969Z,78.31
2023-01-17T06:03:04.829Z,77.76
2023-01-17T06:08:08.560Z,77.88
2023-01-17T06:13:15.292Z,77.83
2023-01-17T06:18:18.503Z,77.74
2023-01-17T06:23:22.286Z,77.71
2023-01-17T06:28:25.236Z,77.70
2023-01-17T06:33:28.257Z,77.56
2023-01-17T06:38:31.562Z,77.66
2023-01-17T06:43:35.072Z,77.07
2023-01-17T06:48:38.025Z,77.29
2023-01-17T06:53:41.474Z,76.93
2023-01-17T06:58:44.404Z,76.86
2023-01-17T07:03:47.382Z,77.11
2023-01-17T07:08:50.533Z,76.85
2023-01-17T07:13:53.821Z,77.07
2023-01-17T07:18:58.194Z,77.32
2023-01-17T07:24:01.140Z,77.72
2023-01-17T07:29:05.376Z,78.13
2023-01-17T07:34:08.337Z,78.23
2023-01-17T07:39:11.594Z,78.35
2023-01-17T07:44:14.724Z,77.88
2023-01-17T07:49:17.635Z,77.95
2023-01-17T07:54:20.562Z,77.18
2023-01-17T07:59:23.562Z,77.63
2023-01-17T08:04:27.620Z,77.25
2023-01-17T08:09:33.522Z,77.06
2023-01-17T08:14:36.787Z,76.99
2023-01-17T08:19:39.749Z,77.15
2023-01-17T08:24:43.246Z,76.99
2023-01-17T08:29:48.417Z,76.87
2023-01-17T08:34:51.398Z,76.91
2023-01-17T08:39:54.343Z,76.67
2023-01-17T08:44:57.396Z,76.47
2023-01-17T08:50:01.121Z,76.16
2023-01-17T08:55:06.030Z,76.26
2023-01-17T09:00:11.912Z,76.33
2023-01-17T09:05:15.171Z,76.75
2023-01-17T09:10:18.169Z,76.92
2023-01-17T09:15:21.104Z,77.05
2023-01-17T09:20:25.301Z,77.14
2023-01-17T09:25:28.264Z,76.94
2023-01-17T09:30:31.281Z,76.74
2023-01-17T09:35:34.636Z,76.34
2023-01-17T09:40:44.484Z,75.86
2023-01-17T09:45:47.593Z,75.81
2023-01-17T09:51:00.509Z,75.99
2023-01-17T09:56:19.867Z,76.03
2023-01-17T10:01:37.367Z,75.91
2023-01-17T10:06:58.478Z,76.30
2023-01-17T10:12:36.553Z,76.32
2023-01-17T10:18:00.434Z,76.60
2023-01-17T10:24:06.650Z,76.85
2023-01-17T10:29:20.093Z,76.95
2023-01-17T10:34:34.381Z,76.86
2023-01-17T10:39:38.180Z,76.76
2023-01-17T10:44:46.301Z,77.13
2023-01-17T10:49:53.862Z,77.16
2023-01-17T10:55:21.226Z,77.53
2023-01-17T11:01:00.435Z,77.21
2023-01-17T11:06:20.079Z,77.57
2023-01-17T11:11:35.743Z,77.75
2023-01-17T11:16:39.580Z,77.49
2023-01-17T11:21:58.662Z,77.35
2023-01-17T11:27:03.905Z,77.66
2023-01-17T11:32:33.250Z,77.54
2023-01-17T11:37:36.923Z,77.28
2023-01-17T11:42:39.856Z,77.17
2023-01-17T11:47:42.849Z,77.12
2023-01-17T11:52:45.892Z,77.49
2023-01-17T11:57:51.294Z,78.35
2023-01-17T12:03:06.306Z,78.27
2023-01-17T12:08:32.148Z,77.98
2023-01-17T12:14:00.885Z,77.48
2023-01-17T12:19:03.819Z,76.96
2023-01-17T12:24:49.749Z,76.83
2023-01-17T12:30:22.056Z,76.78
2023-01-17T12:35:38.824Z,76.81
2023-01-17T12:40:54.357Z,76.36
2023-01-17T12:46:01.103Z,76.18
2023-01-17T12:51:18.772Z,76.16
2023-01-17T12:56:52.918Z,75.65
2023-01-17T13:01:58.984Z,75.33
2023-01-17T13:07:23.147Z,74.77
2023-01-17T13:12:32.864Z,73.51
2023-01-17T13:17:38.691Z,73.46
2023-01-17T13:22:43.454Z,72.62
2023-01-17T13:28:22.788Z,72.44
2023-01-17T13:33:28.106Z,71.89
2023-01-17T13:38:55.998Z,71.32
2023-01-17T13:44:19.694Z,70.73
2023-01-17T13:49:34.935Z,71.22
2023-01-17T13:55:03.406Z,71.19
2023-01-17T14:00:21.430Z,70.21
2023-01-17T14:05:30.500Z,70.53
2023-01-17T14:10:47.290Z,69.78
2023-01-17T14:15:51.491Z,69.53
2023-01-17T14:21:24.494Z,69.58
2023-01-17T14:26:54.753Z,69.05
2023-01-17T14:32:09.181Z,69.51
2023-01-17T14:37:22.151Z,69.85
2023-01-17T14:42:28.265Z,70.00
2023-01-17T14:47:36.204Z,69.87
2023-01-17T14:52:39.157Z,69.77
2023-01-17T14:57:42.987Z,70.67
2023-01-17T15:02:48.331Z,71.70
2023-01-17T15:07:54.940Z,71.92
2023-01-17T15:13:07.847Z,72.87
2023-01-17T15:18:13.775Z,73.83
2023-01-17T15:23:23.100Z,73.38
2023-01-17T15:28:26.477Z,73.17
2023-01-17T15:33:32.430Z,72.79
2023-01-17T15:38:47.610Z,72.76
2023-01-17T15:43:51.465Z,72.71
2023-01-17T15:48:54.506Z,72.70
2023-01-17T15:53:57.647Z,71.75
2023-01-17T15:59:45.577Z,71.90
2023-01-17T16:04:48.558Z,72.13
2023-01-17T16:09:51.508Z,71.76
2023-01-17T16:15:11.105Z,71.43
2023-01-17T16:20:34.310Z,71.11
2023-01-17T16:25:37.790Z,71.19
2023-01-17T16:30:40.792Z,70.94
2023-01-17T16:35:43.778Z,70.27
2023-01-17T16:40:47.472Z,71.06
2023-01-17T16:45:54.044Z,71.91
2023-01-17T16:50:57.168Z,72.39
2023-01-17T16:56:10.229Z,72.78
2023-01-17T17:01:16.648Z,72.97
2023-01-17T17:06:19.739Z,72.94
2023-01-17T17:11:23.952Z,73.44
2023-01-17T17:16:32.990Z,73.27
2023-01-17T17:21:37.640Z,73.48
2023-01-17T17:26:41.227Z,73.56
2023-01-17T17:31:44.312Z,73.59
2023-01-17T17:36:47.276Z,73.97
2023-01-17T17:41:50.251Z,74.50
2023-01-17T17:46:53.514Z,73.91
2023-01-17T17:52:04.639Z,73.33
2023-01-17T17:57:07.756Z,74.17
2023-01-17T18:02:11.530Z,75.11
2023-01-17T18:07:15.008Z,75.87
2023-01-17T18:12:17.996Z,76.13
2023-01-17T18:17:21.018Z,76.14
2023-01-17T18:22:24.443Z,75.91
2023-01-17T18:27:27.467Z,75.92
2023-01-17T18:32:30.431Z,75.43
2023-01-17T18:37:34.098Z,75.03
2023-01-17T18:42:37.033Z,74.77
2023-01-17T18:47:39.978Z,74.49
2023-01-17T18:52:42.938Z,75.15
2023-01-17T18:57:45.875Z,76.06
2023-01-17T19:02:49.073Z,75.85
2023-01-17T19:07:52.315Z,76.25
2023-01-17T19:12:55.384Z,76.60
2023-01-17T19:17:58.320Z,76.80
2023-01-17T19:23:01.620Z,76.58
2023-01-17T19:28:04.684Z,76.25
2023-01-17T19:33:07.732Z,76.00
2023-01-17T19:38:10.656Z,75.82
2023-01-17T19:43:13.559Z,75.65
2023-01-17T19:48:16.992Z,75.62
2023-01-17T19:53:20.051Z,75.16
2023-01-17T19:58:22.959Z,75.41
2023-01-17T20:03:25.881Z,75.75
2023-01-17T20:08:28.832Z,75.85
2023-01-17T20:13:32.452Z,75.25
2023-01-17T20:18:36.263Z,74.60
2023-01-17T20:23:43.141Z,73.99
2023-01-17T20:28:48.974Z,73.88
2023-01-17T20:33:54.826Z,74.78
2023-01-17T20:38:57.793Z,75.20
2023-01-17T20:44:02.639Z,75.73
2023-01-17T20:49:07.660Z,75.81
2023-01-17T20:54:14.697Z,75.98
2023-01-17T20:59:22.429Z,75.91
2023-01-17T21:04:26.204Z,76.14
2023-01-17T21:09:29.175Z,75.68
2023-01-17T21:14:32.155Z,75.37
2023-01-17T21:19:37.026Z,75.25
2023-01-17T21:24:39.958Z,74.77
2023-01-17T21:29:42.924Z,74.51
2023-01-17T21:34:46.121Z,74.66
2023-01-17T21:39:54.781Z,74.62
2023-01-17T21:44:57.766Z,74.35
2023-01-17T21:50:00.710Z,74.50
2023-01-17T21:55:22.483Z,74.72
2023-01-17T22:00:25.588Z,74.98
2023-01-17T22:05:28.552Z,75.26
2023-01-17T22:10:31.638Z,75.42
2023-01-17T22:15:36.573Z,75.78
2023-01-17T22:20:41.440Z,75.89
2023-01-17T22:25:44.373Z,76.03
2023-01-17T22:30:47.313Z,76.39
2023-01-17T22:36:00.241Z,76.26
2023-01-17T22:41:09.577Z,76.51
2023-01-17T22:46:16.427Z,76.82
2023-01-17T22:51:21.279Z,76.76
2023-01-17T22:56:30.822Z,76.27
2023-01-17T23:01:33.914Z,76.61
2023-01-17T23:06:39.804Z,75.98
2023-01-17T23:11:50.975Z,75.59
2023-01-17T23:17:21.603Z,75.85
2023-01-17T23:22:27.967Z,76.23
2023-01-17T23:27:56.991Z,76.19
2023-01-17T23:33:02.814Z,76.27
2023-01-17T23:38:24.981Z,76.11
2023-01-17T23:43:28.375Z,76.27
2023-01-17T23:48:31.893Z,76.32
2023-01-17T23:53:37.330Z,76.24
2023-01-17T23:58:40.473Z,76.04
